createdAt,value
2022-09-24T00:01:40.977Z,100825.63
2022-09-24T00:04:11.418Z,100826.41
2022-09-24T00:06:41.930Z,100824.53
2022-09-24T00:09:10.228Z,100816.38
2022-09-24T00:11:39.467Z,100822.34
2022-09-24T00:14:08.854Z,100817.53
2022-09-24T00:16:37.714Z,100811.84
2022-09-24T00:19:06.336Z,100822.94
2022-09-24T00:21:36.253Z,100813.44
2022-09-24T00:24:07.926Z,100810.44
2022-09-24T00:26:49.585Z,100825.06
2022-09-24T00:29:20.138Z,100828.38
2022-09-24T00:31:48.271Z,100823.47
2022-09-24T00:34:16.367Z,100823.50
2022-09-24T00:36:46.626Z,100819.16
2022-09-24T00:39:14.922Z,100818.63
2022-09-24T00:41:47.931Z,100813.50
2022-09-24T00:44:53.541Z,100813.19
2022-09-24T00:47:33.322Z,100816.47
2022-09-24T00:50:08.021Z,100814.56
2022-09-24T00:52:36.719Z,100815.13
2022-09-24T00:55:04.725Z,100811.31
2022-09-24T00:57:32.761Z,100812.72
2022-09-24T01:00:02.984Z,100812.72
2022-09-24T01:02:30.929Z,100810.53
2022-09-24T01:04:59.372Z,100808.13
2022-09-24T01:07:27.085Z,100812.16
2022-09-24T01:09:54.796Z,100809.50
2022-09-24T01:12:28.566Z,100804.03
2022-09-24T01:15:09.353Z,100811.09
2022-09-24T01:17:41.541Z,100799.44
2022-09-24T01:20:49.279Z,100807.31
2022-09-24T01:23:32.096Z,100808.16
2022-09-24T01:26:19.845Z,100810.28
2022-09-24T01:29:02.586Z,100802.16
2022-09-24T01:31:35.383Z,100805.16
2022-09-24T01:34:05.602Z,100805.69
2022-09-24T01:36:34.867Z,100804.84
2022-09-24T01:39:03.205Z,100801.06
2022-09-24T01:41:33.567Z,100801.06
2022-09-24T01:44:04.985Z,100803.00
2022-09-24T01:46:34.212Z,100801.38
2022-09-24T01:49:01.975Z,100795.94
2022-09-24T01:51:33.345Z,100802.19
2022-09-24T01:54:04.358Z,100790.84
2022-09-24T01:56:36.078Z,100794.88
2022-09-24T01:59:06.834Z,100789.47
2022-09-24T02:01:39.221Z,100789.75
2022-09-24T02:04:11.456Z,100794.34
2022-09-24T02:06:42.307Z,100787.28
2022-09-24T02:09:31.572Z,100793.25
2022-09-24T02:12:00.042Z,100791.91
2022-09-24T02:14:30.557Z,100787.28
2022-09-24T02:17:00.431Z,100795.53
2022-09-24T02:19:30.917Z,100794.13
2022-09-24T02:21:59.167Z,100795.47
2022-09-24T02:24:32.963Z,100793.84
2022-09-24T02:27:00.737Z,100789.22
2022-09-24T02:29:29.837Z,100783.81
2022-09-24T02:31:59.851Z,100779.47
2022-09-24T02:34:31.099Z,100785.72
2022-09-24T02:37:00.944Z,100779.25
2022-09-24T02:39:30.054Z,100777.09
2022-09-24T02:41:58.202Z,100774.41
2022-09-24T02:44:25.988Z,100779.81
2022-09-24T02:47:00.897Z,100775.47
2022-09-24T02:49:30.181Z,100781.97
2022-09-24T02:51:57.896Z,100774.06
2022-09-24T02:54:26.089Z,100775.44
2022-09-24T02:56:54.357Z,100778.41
2022-09-24T02:59:22.535Z,100769.19
2022-09-24T03:01:51.009Z,100768.38
2022-09-24T03:04:20.128Z,100769.47
2022-09-24T03:06:47.845Z,100776.00
2022-09-24T03:09:15.715Z,100777.63
2022-09-24T03:11:43.428Z,100774.09
2022-09-24T03:14:11.204Z,100768.94
2022-09-24T03:16:39.007Z,100773.00
2022-09-24T03:19:07.293Z,100770.28
2022-09-24T03:21:36.525Z,100773.00
2022-09-24T03:24:04.752Z,100764.34
2022-09-24T03:26:33.103Z,100763.25
2022-09-24T03:29:00.833Z,100765.72
2022-09-24T03:31:27.580Z,100761.34
2022-09-24T03:33:57.062Z,100761.88
2022-09-24T03:36:26.903Z,100764.06
2022-09-24T03:38:57.755Z,100763.81
2022-09-24T03:41:27.208Z,100763.53
2022-09-24T03:43:55.394Z,100763.00
2022-09-24T03:46:28.151Z,100758.38
2022-09-24T03:48:56.086Z,100757.31
2022-09-24T03:51:24.402Z,100751.59
2022-09-24T03:53:52.275Z,100760.28
2022-09-24T03:56:21.376Z,100754.31
2022-09-24T03:58:49.145Z,100753.53
2022-09-24T04:01:21.758Z,100745.41
2022-09-24T04:03:50.231Z,100751.91
2022-09-24T04:06:23.359Z,100750.81
2022-09-24T04:08:53.584Z,100754.06
2022-09-24T04:11:22.662Z,100746.47
2022-09-24T04:13:50.650Z,100741.31
2022-09-24T04:16:18.469Z,100746.72
2022-09-24T04:18:48.703Z,100750.84
2022-09-24T04:21:16.445Z,100745.66
2022-09-24T04:23:44.161Z,100751.06
2022-09-24T04:26:12.422Z,100747.28
2022-09-24T04:28:41.805Z,100750.00
2022-09-24T04:31:09.867Z,100745.66
2022-09-24T04:33:37.696Z,100746.22
2022-09-24T04:36:05.433Z,100741.31
2022-09-24T04:38:33.134Z,100744.31
2022-09-24T04:41:06.161Z,100742.94
2022-09-24T04:43:34.108Z,100743.19
2022-09-24T04:46:03.407Z,100741.84
2022-09-24T04:48:31.642Z,100740.22
2022-09-24T04:50:59.391Z,100736.44
2022-09-24T04:53:27.598Z,100746.72
2022-09-24T04:55:55.311Z,100746.19
2022-09-24T04:58:23.038Z,100736.16
2022-09-24T05:00:51.151Z,100744.28
2022-09-24T05:03:21.323Z,100740.47
2022-09-24T05:05:49.992Z,100744.84
2022-09-24T05:08:17.714Z,100741.84
2022-09-24T05:10:45.429Z,100743.22
2022-09-24T05:13:13.129Z,100745.13
2022-09-24T05:15:43.140Z,100740.50
2022-09-24T05:18:11.155Z,100742.44
2022-09-24T05:20:40.215Z,100738.06
2022-09-24T05:23:08.417Z,100741.06
2022-09-24T05:25:57.079Z,100737.00
2022-09-24T05:28:23.880Z,100732.97
2022-09-24T05:30:51.985Z,100738.34
2022-09-24T05:33:20.162Z,100730.25
2022-09-24T05:35:55.447Z,100730.22
2022-09-24T05:38:23.176Z,100726.69
2022-09-24T05:40:51.253Z,100728.88
2022-09-24T05:43:20.176Z,100729.69
2022-09-24T05:45:48.954Z,100733.47
2022-09-24T05:48:17.133Z,100728.56
2022-09-24T05:50:44.852Z,100734.28
2022-09-24T05:53:14.168Z,100742.69
2022-09-24T05:55:43.722Z,100744.06
2022-09-24T05:58:12.044Z,100747.31
2022-09-24T06:00:39.785Z,100742.44
2022-09-24T06:03:10.020Z,100744.84
2022-09-24T06:05:37.779Z,100752.19
2022-09-24T06:08:06.078Z,100752.72
2022-09-24T06:10:35.341Z,100759.47
2022-09-24T06:13:04.307Z,100759.75
2022-09-24T06:15:32.054Z,100761.94
2022-09-24T06:17:59.733Z,100754.06
2022-09-24T06:20:27.608Z,100753.25
2022-09-24T06:22:57.295Z,100756.25
2022-09-24T06:25:25.107Z,100761.38
2022-09-24T06:28:00.133Z,100760.31
2022-09-24T06:30:31.444Z,100762.47
2022-09-24T06:33:05.207Z,100765.19
2022-09-24T06:35:34.847Z,100758.97
2022-09-24T06:38:07.224Z,100757.06
2022-09-24T06:40:37.645Z,100755.66
2022-09-24T06:43:07.523Z,100763.25
2022-09-24T06:45:35.471Z,100762.97
2022-09-24T06:48:04.580Z,100761.78
2022-09-24T06:50:34.258Z,100763.75
2022-09-24T06:53:05.318Z,100757.28
2022-09-24T06:55:33.303Z,100768.09
2022-09-24T06:58:07.557Z,100762.00
2022-09-24T07:00:36.466Z,100768.06
2022-09-24T07:03:04.297Z,100766.63
2022-09-24T07:05:32.149Z,100780.00
2022-09-24T07:07:59.879Z,100773.53
2022-09-24T07:10:28.006Z,100778.81
2022-09-24T07:12:55.756Z,100772.03
2022-09-24T07:15:24.848Z,100777.97
2022-09-24T07:17:56.169Z,100777.28
2022-09-24T07:20:24.526Z,100781.34
2022-09-24T07:22:52.230Z,100779.97
2022-09-24T07:25:19.950Z,100782.22
2022-09-24T07:27:47.730Z,100786.78
2022-09-24T07:30:15.702Z,100781.41
2022-09-24T07:32:44.752Z,100783.97
2022-09-24T07:35:12.508Z,100788.13
2022-09-24T07:37:40.224Z,100790.41
2022-09-24T07:40:09.996Z,100786.38
2022-09-24T07:42:39.049Z,100784.88
2022-09-24T07:45:07.518Z,100783.66
2022-09-24T07:47:35.386Z,100785.78
2022-09-24T07:50:04.989Z,100791.31
2022-09-24T07:52:32.718Z,100782.88
2022-09-24T07:55:00.402Z,100777.91
2022-09-24T07:57:30.710Z,100784.88
2022-09-24T07:59:58.437Z,100788.13
2022-09-24T08:02:26.149Z,100781.06
2022-09-24T08:04:54.531Z,100782.31
2022-09-24T08:07:23.582Z,100785.38
2022-09-24T08:09:51.314Z,100787.28
2022-09-24T08:12:18.997Z,100782.63
2022-09-24T08:14:46.709Z,100779.69
2022-09-24T08:17:14.422Z,100785.59
2022-09-24T08:19:43.171Z,100786.94
2022-09-24T08:22:10.929Z,100783.59
2022-09-24T08:24:39.971Z,100788.13
2022-09-24T08:27:07.687Z,100793.41
2022-09-24T08:29:35.699Z,100782.97
2022-09-24T08:32:03.744Z,100793.84
2022-09-24T08:34:38.137Z,100791.72
2022-09-24T08:37:05.967Z,100787.53
2022-09-24T08:39:33.754Z,100785.16
2022-09-24T08:42:06.109Z,100788.72
2022-09-24T08:44:55.784Z,100787.69
2022-09-24T08:47:35.916Z,100795.59
2022-09-24T08:50:09.295Z,100791.16
2022-09-24T08:52:59.458Z,100795.97
2022-09-24T08:55:32.809Z,100791.03
2022-09-24T08:58:12.540Z,100799.81
2022-09-24T09:00:44.585Z,100790.69
2022-09-24T09:03:18.622Z,100793.63
2022-09-24T09:05:53.502Z,100794.09
2022-09-24T09:11:23.209Z,100800.66
2022-09-24T09:13:54.143Z,100804.00
2022-09-24T09:16:24.847Z,100807.63
2022-09-24T09:18:54.789Z,100803.28
2022-09-24T09:21:28.953Z,100798.47
2022-09-24T09:23:57.694Z,100801.97
2022-09-24T09:26:27.130Z,100802.81
2022-09-24T09:28:59.659Z,100807.66
2022-09-24T09:31:37.617Z,100804.63
2022-09-24T09:34:22.546Z,100808.41
2022-09-24T09:37:03.102Z,100805.72
2022-09-24T09:39:37.510Z,100804.91
2022-09-24T09:42:10.359Z,100807.94
2022-09-24T09:44:42.312Z,100803.00
2022-09-24T09:47:17.233Z,100802.53
2022-09-24T09:49:46.744Z,100802.09
2022-09-24T09:52:17.438Z,100803.53
2022-09-24T09:54:45.619Z,100805.94
2022-09-24T09:57:17.546Z,100807.72
2022-09-24T09:59:48.414Z,100807.56
2022-09-24T10:02:26.749Z,100811.09
2022-09-24T10:04:56.666Z,100810.28
2022-09-24T10:07:24.911Z,100802.47
2022-09-24T10:10:03.910Z,100811.97
2022-09-24T10:12:31.832Z,100807.63
2022-09-24T10:15:02.633Z,100801.66
2022-09-24T10:17:33.065Z,100804.59
2022-09-24T10:20:02.314Z,100801.13
2022-09-24T10:22:30.649Z,100810.28
2022-09-24T10:25:00.789Z,100801.63
2022-09-24T10:27:32.856Z,100800.78
2022-09-24T10:30:19.762Z,100805.72
2022-09-24T10:32:48.765Z,100801.66
2022-09-24T10:35:26.399Z,100802.50
2022-09-24T10:37:55.648Z,100807.56
2022-09-24T10:40:25.772Z,100803.03
2022-09-24T10:42:58.065Z,100799.19
2022-09-24T10:45:37.218Z,100800.84
2022-09-24T10:48:13.040Z,100798.75
2022-09-24T10:50:44.065Z,100806.59
2022-09-24T10:53:15.135Z,100793.84
2022-09-24T10:55:50.198Z,100811.47
2022-09-24T10:58:29.804Z,100802.56
2022-09-24T11:01:06.822Z,100801.47
2022-09-24T11:04:06.888Z,100804.16
2022-09-24T11:06:45.469Z,100798.50
2022-09-24T11:09:22.962Z,100805.28
2022-09-24T11:11:56.873Z,100800.13
2022-09-24T11:14:50.823Z,100804.44
2022-09-24T11:17:27.959Z,100801.97
2022-09-24T11:20:07.449Z,100800.66
2022-09-24T11:22:44.934Z,100797.13
2022-09-24T11:25:24.375Z,100796.88
2022-09-24T11:27:58.083Z,100800.38
2022-09-24T11:30:28.531Z,100798.75
2022-09-24T11:33:05.293Z,100800.38
2022-09-24T11:36:06.384Z,100800.94
2022-09-24T11:38:46.834Z,100792.25
2022-09-24T11:41:21.629Z,100784.69
2022-09-24T11:44:00.818Z,100799.84
2022-09-24T11:46:39.553Z,100793.84
2022-09-24T11:49:20.614Z,100796.06
2022-09-24T11:51:55.190Z,100795.75
2022-09-24T11:54:27.044Z,100798.22
2022-09-24T11:56:58.997Z,100782.78
2022-09-24T11:59:34.327Z,100786.56
2022-09-24T12:02:06.454Z,100786.28
2022-09-24T12:04:49.372Z,100789.53
2022-09-24T12:07:23.399Z,100783.84
2022-09-24T12:09:53.864Z,100787.91
2022-09-24T12:12:24.019Z,100789.28
2022-09-24T12:14:54.537Z,100778.19
2022-09-24T12:17:26.664Z,100780.31
2022-09-24T12:20:00.184Z,100786.84
2022-09-24T12:22:29.405Z,100782.78
2022-09-24T12:24:59.249Z,100788.75
2022-09-24T12:27:32.542Z,100783.03
2022-09-24T12:30:32.446Z,100779.53
2022-09-24T12:33:04.499Z,100787.41
2022-09-24T12:35:38.563Z,100775.47
2022-09-24T12:38:09.446Z,100782.50
2022-09-24T12:40:59.060Z,100786.28
2022-09-24T12:43:31.355Z,100783.00
2022-09-24T12:46:04.169Z,100785.19
2022-09-24T12:48:34.730Z,100781.66
2022-09-24T12:51:06.215Z,100781.41
2022-09-24T12:53:35.914Z,100779.78
2022-09-24T12:56:06.284Z,100784.09
2022-09-24T12:58:38.861Z,100777.59
2022-09-24T13:01:22.811Z,100777.34
2022-09-24T13:04:04.065Z,100773.53
2022-09-24T13:06:35.788Z,100773.25
2022-09-24T13:09:25.594Z,100768.44
2022-09-24T13:12:03.833Z,100774.91
2022-09-24T13:14:32.415Z,100765.16
2022-09-24T13:17:02.959Z,100762.97
2022-09-24T13:19:37.126Z,100762.47
2022-09-24T13:22:06.462Z,100768.16
2022-09-24T13:24:47.049Z,100766.25
2022-09-24T13:27:37.815Z,100762.72
2022-09-24T13:30:15.025Z,100758.41
2022-09-24T13:32:47.841Z,100759.75
2022-09-24T13:35:22.076Z,100760.59
2022-09-24T13:37:54.847Z,100757.06
2022-09-24T13:40:25.980Z,100765.19
2022-09-24T13:42:58.764Z,100764.66
2022-09-24T13:45:26.714Z,100759.22
2022-09-24T13:47:56.248Z,100755.69
2022-09-24T13:50:25.723Z,100751.09
2022-09-24T13:52:57.886Z,100753.00
2022-09-24T13:55:30.897Z,100753.00
2022-09-24T13:57:59.125Z,100749.19
2022-09-24T14:00:27.868Z,100755.41
2022-09-24T14:03:02.390Z,100750.28
2022-09-24T14:05:32.090Z,100750.00
2022-09-24T14:08:04.510Z,100750.25
2022-09-24T14:10:32.729Z,100751.38
2022-09-24T14:13:10.597Z,100754.63
2022-09-24T14:15:38.468Z,100751.06
2022-09-24T14:18:12.091Z,100759.22
2022-09-24T14:20:40.739Z,100747.53
2022-09-24T14:23:16.896Z,100745.06
2022-09-24T14:25:44.720Z,100748.31
2022-09-24T14:28:14.093Z,100744.31
2022-09-24T14:30:49.908Z,100745.13
2022-09-24T14:33:19.010Z,100737.50
2022-09-24T14:35:48.307Z,100740.72
2022-09-24T14:38:19.350Z,100749.88
2022-09-24T14:40:49.622Z,100743.13
2022-09-24T14:43:21.505Z,100741.81
2022-09-24T14:45:50.222Z,100741.34
2022-09-24T14:48:21.849Z,100741.88
2022-09-24T14:50:49.581Z,100735.94
2022-09-24T14:53:23.626Z,100741.88
2022-09-24T14:55:51.571Z,100735.66
2022-09-24T14:58:27.595Z,100733.25
2022-09-24T15:00:58.050Z,100736.44
2022-09-24T15:03:29.859Z,100730.25
2022-09-24T15:06:17.913Z,100731.59
2022-09-24T15:08:53.290Z,100727.53
2022-09-24T15:11:21.310Z,100728.09
2022-09-24T15:13:58.986Z,100730.25
2022-09-24T15:16:31.758Z,100735.13
2022-09-24T15:19:11.044Z,100735.94
2022-09-24T15:21:38.904Z,100735.13
2022-09-24T15:24:08.055Z,100732.16
2022-09-24T15:26:37.128Z,100738.91
2022-09-24T15:29:05.484Z,100736.75
2022-09-24T15:31:33.280Z,100731.34
2022-09-24T15:34:01.091Z,100735.66
2022-09-24T15:36:29.781Z,100733.47
2022-09-24T15:39:03.105Z,100729.97
2022-09-24T15:41:32.260Z,100729.97
2022-09-24T15:44:00.686Z,100725.66
2022-09-24T15:46:28.680Z,100723.78
2022-09-24T15:48:56.434Z,100720.75
2022-09-24T15:51:24.504Z,100722.91
2022-09-24T15:53:52.365Z,100731.88
2022-09-24T15:56:20.071Z,100726.16
2022-09-24T15:58:49.153Z,100724.03
2022-09-24T16:01:18.865Z,100730.53
2022-09-24T16:03:46.694Z,100730.50
2022-09-24T16:06:15.024Z,100719.97
2022-09-24T16:08:43.445Z,100726.16
2022-09-24T16:11:11.263Z,100720.22
2022-09-24T16:13:38.993Z,100725.13
2022-09-24T16:16:08.977Z,100726.75
2022-09-24T16:18:39.653Z,100728.63
2022-09-24T16:21:08.218Z,100737.84
2022-09-24T16:23:36.029Z,100733.78
2022-09-24T16:26:04.067Z,100731.59
2022-09-24T16:28:32.235Z,100732.94
2022-09-24T16:30:59.979Z,100732.41
2022-09-24T16:33:29.069Z,100734.28
2022-09-24T16:35:56.761Z,100731.31
2022-09-24T16:38:24.513Z,100735.91
2022-09-24T16:41:00.547Z,100738.91
2022-09-24T16:43:30.686Z,100730.25
2022-09-24T16:46:03.100Z,100729.97
2022-09-24T16:48:32.655Z,100731.84
2022-09-24T16:51:04.746Z,100727.00
2022-09-24T16:53:34.124Z,100735.66
2022-09-24T16:56:07.724Z,100737.00
2022-09-24T16:58:36.045Z,100737.31
2022-09-24T17:01:07.774Z,100735.38
2022-09-24T17:03:37.390Z,100737.00
2022-09-24T17:06:06.146Z,100733.25
2022-09-24T17:08:53.097Z,100734.31
2022-09-24T17:11:21.351Z,100735.91
2022-09-24T17:13:49.202Z,100737.84
2022-09-24T17:16:18.624Z,100736.75
2022-09-24T17:18:47.749Z,100728.34
2022-09-24T17:21:16.701Z,100732.69
2022-09-24T17:23:44.715Z,100735.41
2022-09-24T17:26:13.964Z,100735.66
2022-09-24T17:28:43.314Z,100732.16
2022-09-24T17:31:13.821Z,100732.91
2022-09-24T17:33:43.808Z,100734.84
2022-09-24T17:36:14.103Z,100732.94
2022-09-24T17:38:42.056Z,100732.69
2022-09-24T17:41:11.761Z,100731.31
2022-09-24T17:43:40.541Z,100729.44
2022-09-24T17:46:13.771Z,100738.34
2022-09-24T17:48:44.344Z,100739.44
2022-09-24T17:51:15.978Z,100727.53
2022-09-24T17:53:44.150Z,100735.66
2022-09-24T17:56:13.397Z,100731.06
2022-09-24T17:58:42.554Z,100728.09
2022-09-24T18:01:12.139Z,100728.38
2022-09-24T18:03:40.423Z,100738.34
2022-09-24T18:06:09.873Z,100735.63
2022-09-24T18:08:39.344Z,100729.69
2022-09-24T18:11:09.097Z,100735.91
2022-09-24T18:13:36.958Z,100738.34
2022-09-24T18:16:05.371Z,100739.69
2022-09-24T18:18:33.533Z,100740.25
2022-09-24T18:21:02.451Z,100750.53
2022-09-24T18:23:30.843Z,100742.97
2022-09-24T18:26:10.686Z,100752.19
2022-09-24T18:28:39.635Z,100749.72
2022-09-24T18:31:08.386Z,100750.00
2022-09-24T18:33:38.715Z,100761.63
2022-09-24T18:36:08.848Z,100752.16
2022-09-24T18:38:36.738Z,100757.84
2022-09-24T18:41:10.072Z,100752.72
2022-09-24T18:43:38.189Z,100750.53
2022-09-24T18:46:06.476Z,100760.50
2022-09-24T18:48:35.205Z,100750.53
2022-09-24T18:51:03.170Z,100758.66
2022-09-24T18:53:31.772Z,100754.84
2022-09-24T18:56:00.438Z,100757.84
2022-09-24T18:58:29.526Z,100754.31
2022-09-24T19:00:59.165Z,100762.44
2022-09-24T19:03:28.332Z,100762.47
2022-09-24T19:05:58.014Z,100764.91
2022-09-24T19:08:25.874Z,100766.78
2022-09-24T19:10:54.142Z,100765.69
2022-09-24T19:13:26.358Z,100764.66
2022-09-24T19:15:55.707Z,100768.16
2022-09-24T19:18:23.516Z,100761.38
2022-09-24T19:20:51.241Z,100775.47
2022-09-24T19:23:19.037Z,100774.38
2022-09-24T19:25:46.734Z,100772.78
2022-09-24T19:28:14.578Z,100773.31
2022-09-24T19:30:44.669Z,100766.81
2022-09-24T19:33:15.885Z,100763.03
2022-09-24T19:35:45.622Z,100767.09
2022-09-24T19:38:16.530Z,100770.31
2022-09-24T19:40:44.283Z,100765.16
2022-09-24T19:43:12.884Z,100769.78
2022-09-24T19:45:40.601Z,100771.94
2022-09-24T19:48:08.310Z,100760.84
2022-09-24T19:50:38.479Z,100766.25
2022-09-24T19:53:06.243Z,100768.16
2022-09-24T19:55:35.902Z,100768.44
2022-09-24T19:58:03.615Z,100772.25
2022-09-24T20:00:31.327Z,100769.53
2022-09-24T20:02:59.259Z,100763.81
2022-09-24T20:05:26.996Z,100761.09
2022-09-24T20:07:56.103Z,100772.75
2022-09-24T20:10:23.964Z,100762.47
2022-09-24T20:12:54.369Z,100762.47
2022-09-24T20:15:22.329Z,100765.44
2022-09-24T20:17:50.047Z,100759.75
2022-09-24T20:20:18.143Z,100760.53
2022-09-24T20:22:45.849Z,100756.72
2022-09-24T20:25:15.125Z,100759.72
2022-09-24T20:27:51.036Z,100753.22
2022-09-24T20:30:21.460Z,100754.31
2022-09-24T20:32:49.298Z,100758.09
2022-09-24T20:35:17.673Z,100758.09
2022-09-24T20:37:45.436Z,100760.81
2022-09-24T20:40:13.197Z,100758.09
2022-09-24T20:42:42.336Z,100752.16
2022-09-24T20:45:10.528Z,100752.41
2022-09-24T20:47:38.910Z,100753.53
2022-09-24T20:50:07.914Z,100757.59
2022-09-24T20:52:35.663Z,100753.50
2022-09-24T20:55:03.475Z,100748.63
2022-09-24T20:57:31.219Z,100750.56
2022-09-24T21:00:00.283Z,100755.44
2022-09-24T21:02:29.655Z,100752.97
2022-09-24T21:04:57.475Z,100748.63
2022-09-24T21:07:25.213Z,100756.50
2022-09-24T21:09:53.132Z,100756.75
2022-09-24T21:12:20.823Z,100755.13
2022-09-24T21:14:48.762Z,100753.75
2022-09-24T21:17:18.501Z,100761.88
2022-09-24T21:19:46.206Z,100761.88
2022-09-24T21:22:14.594Z,100758.09
2022-09-24T21:24:42.269Z,100755.38
2022-09-24T21:27:09.991Z,100750.53
2022-09-24T21:29:37.714Z,100755.09
2022-09-24T21:32:05.462Z,100755.38
2022-09-24T21:34:35.585Z,100749.16
2022-09-24T21:37:03.415Z,100747.81
2022-09-24T21:39:31.133Z,100750.78
2022-09-24T21:41:59.239Z,100753.75
2022-09-24T21:44:30.277Z,100749.97
2022-09-24T21:46:58.029Z,100754.28
2022-09-24T21:49:25.793Z,100751.59
2022-09-24T21:51:55.606Z,100754.31
2022-09-24T21:54:23.677Z,100752.13
2022-09-24T21:56:52.803Z,100747.53
2022-09-24T21:59:37.946Z,100751.59
2022-09-24T22:02:05.715Z,100757.56
2022-09-24T22:04:33.729Z,100751.31
2022-09-24T22:07:04.167Z,100753.22
2022-09-24T22:09:32.872Z,100749.97
2022-09-24T22:12:01.767Z,100748.91
2022-09-24T22:14:29.721Z,100752.16
2022-09-24T22:16:57.612Z,100749.97
2022-09-24T22:19:25.435Z,100753.22
2022-09-24T22:21:53.358Z,100751.06
2022-09-24T22:24:22.457Z,100748.09
2022-09-24T22:26:50.186Z,100745.41
2022-09-24T22:29:18.018Z,100743.19
2022-09-24T22:31:45.739Z,100750.53
2022-09-24T22:34:39.324Z,100745.13
2022-09-24T22:37:07.895Z,100751.31
2022-09-24T22:39:37.028Z,100738.88
2022-09-24T22:42:05.172Z,100747.84
2022-09-24T22:44:32.923Z,100742.13
2022-09-24T22:47:00.665Z,100733.19
2022-09-24T22:49:28.962Z,100737.75
2022-09-24T22:51:56.668Z,100739.13
2022-09-24T22:54:25.221Z,100739.44
2022-09-24T22:56:54.302Z,100744.00
2022-09-24T22:59:21.988Z,100747.00
2022-09-24T23:01:49.795Z,100746.69
2022-09-24T23:04:17.516Z,100748.34
2022-09-24T23:06:45.264Z,100745.63
2022-09-24T23:09:12.997Z,100747.28
2022-09-24T23:11:40.888Z,100745.66
2022-09-24T23:14:13.373Z,100744.03
2022-09-24T23:16:42.599Z,100741.06
2022-09-24T23:19:13.570Z,100733.44
2022-09-24T23:21:41.509Z,100741.84
2022-09-24T23:24:13.340Z,100742.41
2022-09-24T23:26:41.077Z,100738.63
2022-09-24T23:29:11.178Z,100736.69
2022-09-24T23:31:39.101Z,100733.44
2022-09-24T23:34:07.835Z,100726.69
2022-09-24T23:36:36.266Z,100726.94
2022-09-24T23:39:05.512Z,100725.03
2022-09-24T23:41:33.460Z,100725.34
2022-09-24T23:44:03.629Z,100730.72
2022-09-24T23:46:34.035Z,100732.94
2022-09-24T23:49:02.999Z,100737.00
2022-09-24T23:51:30.827Z,100737.50
2022-09-24T23:53:58.572Z,100734.53
2022-09-24T23:56:26.365Z,100727.50
2022-09-24T23:58:54.893Z,100732.09
